sensor_id;sensor_type;location;lat;lon;timestamp;temperature;humidity
23267;DHT22;11802;53.160;8.214;2022-09-03T00:00:27;16.00;99.90
23267;DHT22;11802;53.160;8.214;2022-09-03T00:03:10;16.00;99.90
23267;DHT22;11802;53.160;8.214;2022-09-03T00:05:42;15.90;99.90
23267;DHT22;11802;53.160;8.214;2022-09-03T00:10:48;15.80;99.90
23267;DHT22;11802;53.160;8.214;2022-09-03T00:13:22;15.80;99.90
23267;DHT22;11802;53.160;8.214;2022-09-03T00:15:50;15.80;99.90
23267;DHT22;11802;53.160;8.214;2022-09-03T00:18:23;15.70;99.90
23267;DHT22;11802;53.160;8.214;2022-09-03T00:20:59;15.60;99.90
23267;DHT22;11802;53.160;8.214;2022-09-03T00:23:37;15.60;99.90
23267;DHT22;11802;53.160;8.214;2022-09-03T00:31:23;15.30;99.90
23267;DHT22;11802;53.160;8.214;2022-09-03T00:33:54;15.20;99.90
23267;DHT22;11802;53.160;8.214;2022-09-03T00:36:27;15.20;99.90
23267;DHT22;11802;53.160;8.214;2022-09-03T00:38:57;15.00;99.90
23267;DHT22;11802;53.160;8.214;2022-09-03T00:41:32;15.00;99.90
23267;DHT22;11802;53.160;8.214;2022-09-03T00:44:36;14.90;99.90
23267;DHT22;11802;53.160;8.214;2022-09-03T01:00:44;14.40;99.90
23267;DHT22;11802;53.160;8.214;2022-09-03T01:05:57;14.30;99.90
23267;DHT22;11802;53.160;8.214;2022-09-03T01:08:59;14.20;99.90
23267;DHT22;11802;53.160;8.214;2022-09-03T01:29:16;13.80;99.90
23267;DHT22;11802;53.160;8.214;2022-09-03T01:31:58;13.80;99.90
23267;DHT22;11802;53.160;8.214;2022-09-03T01:34:39;13.70;99.90
23267;DHT22;11802;53.160;8.214;2022-09-03T01:37:43;13.70;99.90
23267;DHT22;11802;53.160;8.214;2022-09-03T01:40:21;13.70;99.90
23267;DHT22;11802;53.160;8.214;2022-09-03T01:42:56;13.70;99.90
23267;DHT22;11802;53.160;8.214;2022-09-03T01:45:36;13.70;99.90
23267;DHT22;11802;53.160;8.214;2022-09-03T01:48:31;13.60;99.90
23267;DHT22;11802;53.160;8.214;2022-09-03T01:51:21;13.60;99.90
23267;DHT22;11802;53.160;8.214;2022-09-03T01:57:17;13.50;99.90
23267;DHT22;11802;53.160;8.214;2022-09-03T02:02:28;13.40;99.90
23267;DHT22;11802;53.160;8.214;2022-09-03T02:05:25;13.40;99.90
23267;DHT22;11802;53.160;8.214;2022-09-03T02:08:00;13.30;99.90
23267;DHT22;11802;53.160;8.214;2022-09-03T02:10:46;13.30;99.90
23267;DHT22;11802;53.160;8.214;2022-09-03T02:13:41;13.30;99.90
23267;DHT22;11802;53.160;8.214;2022-09-03T02:16:17;13.20;99.90
23267;DHT22;11802;53.160;8.214;2022-09-03T02:18:53;13.10;99.90
23267;DHT22;11802;53.160;8.214;2022-09-03T02:21:21;13.10;99.90
23267;DHT22;11802;53.160;8.214;2022-09-03T02:23:48;13.10;99.90
23267;DHT22;11802;53.160;8.214;2022-09-03T02:26:17;13.10;99.90
23267;DHT22;11802;53.160;8.214;2022-09-03T02:28:43;13.10;99.90
23267;DHT22;11802;53.160;8.214;2022-09-03T02:31:09;13.10;99.90
23267;DHT22;11802;53.160;8.214;2022-09-03T02:33:38;13.00;99.90
23267;DHT22;11802;53.160;8.214;2022-09-03T02:36:06;13.00;99.90
23267;DHT22;11802;53.160;8.214;2022-09-03T02:38:32;13.00;99.90
23267;DHT22;11802;53.160;8.214;2022-09-03T02:40:58;12.90;99.90
23267;DHT22;11802;53.160;8.214;2022-09-03T02:44:33;12.90;99.90
23267;DHT22;11802;53.160;8.214;2022-09-03T02:46:44;13.00;99.90
23267;DHT22;11802;53.160;8.214;2022-09-03T02:49:11;12.90;99.90
23267;DHT22;11802;53.160;8.214;2022-09-03T02:51:39;12.90;99.90
23267;DHT22;11802;53.160;8.214;2022-09-03T02:54:05;12.80;99.90
23267;DHT22;11802;53.160;8.214;2022-09-03T02:56:31;12.90;99.90
23267;DHT22;11802;53.160;8.214;2022-09-03T02:58:57;12.80;99.90
23267;DHT22;11802;53.160;8.214;2022-09-03T03:01:23;12.80;99.90
23267;DHT22;11802;53.160;8.214;2022-09-03T03:03:49;12.80;99.90
23267;DHT22;11802;53.160;8.214;2022-09-03T03:06:15;12.80;99.90
23267;DHT22;11802;53.160;8.214;2022-09-03T03:08:41;12.70;99.90
23267;DHT22;11802;53.160;8.214;2022-09-03T03:11:07;12.70;99.90
23267;DHT22;11802;53.160;8.214;2022-09-03T03:13:33;12.70;99.90
23267;DHT22;11802;53.160;8.214;2022-09-03T03:16:00;12.70;99.90
23267;DHT22;11802;53.160;8.214;2022-09-03T03:18:26;12.70;99.90
23267;DHT22;11802;53.160;8.214;2022-09-03T03:20:52;12.60;99.90
23267;DHT22;11802;53.160;8.214;2022-09-03T03:23:19;12.60;99.90
23267;DHT22;11802;53.160;8.214;2022-09-03T03:25:44;12.60;99.90
23267;DHT22;11802;53.160;8.214;2022-09-03T03:28:10;12.60;99.90
23267;DHT22;11802;53.160;8.214;2022-09-03T03:30:38;12.60;99.90
23267;DHT22;11802;53.160;8.214;2022-09-03T03:33:05;12.50;99.90
23267;DHT22;11802;53.160;8.214;2022-09-03T03:35:31;12.40;99.90
23267;DHT22;11802;53.160;8.214;2022-09-03T03:37:57;12.40;99.90
23267;DHT22;11802;53.160;8.214;2022-09-03T03:40:23;12.50;99.90
23267;DHT22;11802;53.160;8.214;2022-09-03T03:42:49;12.40;99.90
23267;DHT22;11802;53.160;8.214;2022-09-03T03:45:15;12.40;99.90
23267;DHT22;11802;53.160;8.214;2022-09-03T03:47:40;12.40;99.90
23267;DHT22;11802;53.160;8.214;2022-09-03T03:50:06;12.30;99.90
23267;DHT22;11802;53.160;8.214;2022-09-03T03:52:32;12.30;99.90
23267;DHT22;11802;53.160;8.214;2022-09-03T03:54:57;12.30;99.90
23267;DHT22;11802;53.160;8.214;2022-09-03T03:57:23;12.30;99.90
23267;DHT22;11802;53.160;8.214;2022-09-03T03:59:49;12.20;99.90
23267;DHT22;11802;53.160;8.214;2022-09-03T04:02:15;12.30;99.90
23267;DHT22;11802;53.160;8.214;2022-09-03T04:04:41;12.20;99.90
23267;DHT22;11802;53.160;8.214;2022-09-03T04:07:07;12.20;99.90
23267;DHT22;11802;53.160;8.214;2022-09-03T04:09:33;12.10;99.90
23267;DHT22;11802;53.160;8.214;2022-09-03T04:11:59;12.10;99.90
23267;DHT22;11802;53.160;8.214;2022-09-03T04:14:26;12.10;99.90
23267;DHT22;11802;53.160;8.214;2022-09-03T04:16:53;12.10;99.90
23267;DHT22;11802;53.160;8.214;2022-09-03T04:19:19;12.10;99.90
23267;DHT22;11802;53.160;8.214;2022-09-03T04:21:45;12.10;99.90
23267;DHT22;11802;53.160;8.214;2022-09-03T04:24:10;12.10;99.90
23267;DHT22;11802;53.160;8.214;2022-09-03T04:26:36;12.00;99.90
23267;DHT22;11802;53.160;8.214;2022-09-03T04:29:07;12.00;99.90
23267;DHT22;11802;53.160;8.214;2022-09-03T04:31:34;12.00;99.90
23267;DHT22;11802;53.160;8.214;2022-09-03T04:34:00;11.90;99.90
23267;DHT22;11802;53.160;8.214;2022-09-03T04:36:28;11.90;99.90
23267;DHT22;11802;53.160;8.214;2022-09-03T04:38:56;11.90;99.90
23267;DHT22;11802;53.160;8.214;2022-09-03T04:41:25;12.00;99.90
23267;DHT22;11802;53.160;8.214;2022-09-03T04:43:52;12.00;99.90
23267;DHT22;11802;53.160;8.214;2022-09-03T04:46:26;12.00;99.90
23267;DHT22;11802;53.160;8.214;2022-09-03T04:48:57;12.00;99.90
23267;DHT22;11802;53.160;8.214;2022-09-03T04:51:25;11.90;99.90
23267;DHT22;11802;53.160;8.214;2022-09-03T04:53:56;12.00;99.90
23267;DHT22;11802;53.160;8.214;2022-09-03T04:56:33;11.90;99.90
23267;DHT22;11802;53.160;8.214;2022-09-03T04:59:01;12.00;99.90
23267;DHT22;11802;53.160;8.214;2022-09-03T05:01:29;12.00;99.90
23267;DHT22;11802;53.160;8.214;2022-09-03T05:03:56;12.00;99.90
23267;DHT22;11802;53.160;8.214;2022-09-03T05:06:22;12.00;99.90
23267;DHT22;11802;53.160;8.214;2022-09-03T05:08:50;12.00;99.90
23267;DHT22;11802;53.160;8.214;2022-09-03T05:11:17;12.00;99.90
23267;DHT22;11802;53.160;8.214;2022-09-03T05:13:49;12.10;99.90
23267;DHT22;11802;53.160;8.214;2022-09-03T05:16:16;12.20;99.90
23267;DHT22;11802;53.160;8.214;2022-09-03T05:18:43;12.20;99.90
23267;DHT22;11802;53.160;8.214;2022-09-03T05:21:11;12.30;99.90
23267;DHT22;11802;53.160;8.214;2022-09-03T05:23:42;12.30;99.90
23267;DHT22;11802;53.160;8.214;2022-09-03T05:26:10;12.50;99.90
23267;DHT22;11802;53.160;8.214;2022-09-03T05:28:38;12.60;99.90
23267;DHT22;11802;53.160;8.214;2022-09-03T05:31:16;12.70;99.90
23267;DHT22;11802;53.160;8.214;2022-09-03T05:33:44;12.80;99.90
23267;DHT22;11802;53.160;8.214;2022-09-03T05:36:13;12.90;99.90
23267;DHT22;11802;53.160;8.214;2022-09-03T05:38:39;13.10;99.90
23267;DHT22;11802;53.160;8.214;2022-09-03T05:41:07;13.20;99.90
23267;DHT22;11802;53.160;8.214;2022-09-03T05:43:33;13.30;99.90
23267;DHT22;11802;53.160;8.214;2022-09-03T05:46:10;13.40;99.90
23267;DHT22;11802;53.160;8.214;2022-09-03T05:48:37;13.50;99.90
23267;DHT22;11802;53.160;8.214;2022-09-03T05:51:04;13.60;99.90
23267;DHT22;11802;53.160;8.214;2022-09-03T05:53:33;13.70;99.90
23267;DHT22;11802;53.160;8.214;2022-09-03T05:56:02;13.70;99.90
23267;DHT22;11802;53.160;8.214;2022-09-03T05:58:32;13.80;99.90
23267;DHT22;11802;53.160;8.214;2022-09-03T06:00:59;13.90;99.90
23267;DHT22;11802;53.160;8.214;2022-09-03T06:03:25;13.90;99.90
23267;DHT22;11802;53.160;8.214;2022-09-03T06:05:52;14.00;99.90
23267;DHT22;11802;53.160;8.214;2022-09-03T06:08:19;14.10;99.90
23267;DHT22;11802;53.160;8.214;2022-09-03T06:10:45;14.20;99.90
23267;DHT22;11802;53.160;8.214;2022-09-03T06:13:10;14.20;99.90
23267;DHT22;11802;53.160;8.214;2022-09-03T06:15:36;14.10;99.90
23267;DHT22;11802;53.160;8.214;2022-09-03T06:18:02;14.20;99.90
23267;DHT22;11802;53.160;8.214;2022-09-03T06:20:27;14.40;99.90
23267;DHT22;11802;53.160;8.214;2022-09-03T06:22:54;14.90;99.90
23267;DHT22;11802;53.160;8.214;2022-09-03T06:25:20;15.50;99.90
23267;DHT22;11802;53.160;8.214;2022-09-03T06:27:45;15.60;99.90
23267;DHT22;11802;53.160;8.214;2022-09-03T06:30:12;15.50;99.90
23267;DHT22;11802;53.160;8.214;2022-09-03T06:32:44;16.00;99.90
23267;DHT22;11802;53.160;8.214;2022-09-03T06:35:10;17.10;99.90
23267;DHT22;11802;53.160;8.214;2022-09-03T06:37:39;18.00;99.90
23267;DHT22;11802;53.160;8.214;2022-09-03T06:40:06;18.60;99.90
23267;DHT22;11802;53.160;8.214;2022-09-03T06:42:33;18.90;99.90
23267;DHT22;11802;53.160;8.214;2022-09-03T06:44:59;19.60;99.90
23267;DHT22;11802;53.160;8.214;2022-09-03T06:47:24;19.60;99.90
23267;DHT22;11802;53.160;8.214;2022-09-03T06:49:50;19.50;99.90
23267;DHT22;11802;53.160;8.214;2022-09-03T06:52:16;20.50;99.90
23267;DHT22;11802;53.160;8.214;2022-09-03T06:54:41;21.00;99.90
23267;DHT22;11802;53.160;8.214;2022-09-03T06:57:07;21.80;99.90
23267;DHT22;11802;53.160;8.214;2022-09-03T06:59:32;22.90;99.90
23267;DHT22;11802;53.160;8.214;2022-09-03T07:01:58;22.90;99.90
23267;DHT22;11802;53.160;8.214;2022-09-03T07:04:25;23.10;99.90
23267;DHT22;11802;53.160;8.214;2022-09-03T07:06:51;22.50;99.90
23267;DHT22;11802;53.160;8.214;2022-09-03T07:09:17;22.30;99.90
23267;DHT22;11802;53.160;8.214;2022-09-03T07:11:43;22.60;99.90
23267;DHT22;11802;53.160;8.214;2022-09-03T07:14:12;23.10;99.90
23267;DHT22;11802;53.160;8.214;2022-09-03T07:16:38;23.10;99.90
23267;DHT22;11802;53.160;8.214;2022-09-03T07:19:04;23.30;99.90
23267;DHT22;11802;53.160;8.214;2022-09-03T07:21:31;23.40;99.90
23267;DHT22;11802;53.160;8.214;2022-09-03T07:23:58;23.40;99.90
23267;DHT22;11802;53.160;8.214;2022-09-03T07:26:29;23.50;99.90
23267;DHT22;11802;53.160;8.214;2022-09-03T07:28:55;24.10;99.90
23267;DHT22;11802;53.160;8.214;2022-09-03T07:31:23;24.60;99.90
23267;DHT22;11802;53.160;8.214;2022-09-03T07:33:57;24.50;99.90
23267;DHT22;11802;53.160;8.214;2022-09-03T07:36:25;23.60;99.90
23267;DHT22;11802;53.160;8.214;2022-09-03T07:38:54;23.60;99.90
23267;DHT22;11802;53.160;8.214;2022-09-03T07:41:20;23.80;99.90
23267;DHT22;11802;53.160;8.214;2022-09-03T07:43:47;23.70;99.90
23267;DHT22;11802;53.160;8.214;2022-09-03T07:46:21;24.30;99.90
23267;DHT22;11802;53.160;8.214;2022-09-03T07:48:51;24.40;99.90
23267;DHT22;11802;53.160;8.214;2022-09-03T07:51:18;25.10;99.90
23267;DHT22;11802;53.160;8.214;2022-09-03T07:53:45;25.00;99.90
23267;DHT22;11802;53.160;8.214;2022-09-03T07:56:12;25.60;99.90
23267;DHT22;11802;53.160;8.214;2022-09-03T07:58:41;25.20;99.90
23267;DHT22;11802;53.160;8.214;2022-09-03T08:01:18;24.80;99.90
23267;DHT22;11802;53.160;8.214;2022-09-03T08:03:51;25.60;99.90
23267;DHT22;11802;53.160;8.214;2022-09-03T08:06:20;26.20;99.90
23267;DHT22;11802;53.160;8.214;2022-09-03T08:08:46;26.20;99.90
23267;DHT22;11802;53.160;8.214;2022-09-03T08:11:13;26.30;99.90
23267;DHT22;11802;53.160;8.214;2022-09-03T08:13:41;26.10;99.90
23267;DHT22;11802;53.160;8.214;2022-09-03T08:16:09;26.20;99.90
23267;DHT22;11802;53.160;8.214;2022-09-03T08:18:36;26.70;99.90
23267;DHT22;11802;53.160;8.214;2022-09-03T08:21:11;26.40;99.90
23267;DHT22;11802;53.160;8.214;2022-09-03T08:23:42;26.50;99.90
23267;DHT22;11802;53.160;8.214;2022-09-03T08:26:08;26.10;99.90
23267;DHT22;11802;53.160;8.214;2022-09-03T08:28:35;25.70;99.90
23267;DHT22;11802;53.160;8.214;2022-09-03T08:31:08;26.00;99.90
23267;DHT22;11802;53.160;8.214;2022-09-03T08:33:39;25.80;99.90
23267;DHT22;11802;53.160;8.214;2022-09-03T08:36:12;25.90;99.90
23267;DHT22;11802;53.160;8.214;2022-09-03T08:38:37;25.50;99.90
23267;DHT22;11802;53.160;8.214;2022-09-03T08:41:15;25.80;99.90
23267;DHT22;11802;53.160;8.214;2022-09-03T08:49:51;26.80;99.90
23267;DHT22;11802;53.160;8.214;2022-09-03T08:52:24;26.70;99.90
23267;DHT22;11802;53.160;8.214;2022-09-03T08:54:54;26.30;99.90
23267;DHT22;11802;53.160;8.214;2022-09-03T08:57:24;26.00;99.90
23267;DHT22;11802;53.160;8.214;2022-09-03T08:59:53;26.00;99.90
23267;DHT22;11802;53.160;8.214;2022-09-03T09:05:12;26.40;99.90
23267;DHT22;11802;53.160;8.214;2022-09-03T09:07:43;26.50;99.90
23267;DHT22;11802;53.160;8.214;2022-09-03T09:10:26;25.90;99.90
23267;DHT22;11802;53.160;8.214;2022-09-03T09:21:15;26.30;99.90
23267;DHT22;11802;53.160;8.214;2022-09-03T09:23:46;25.70;99.90
23267;DHT22;11802;53.160;8.214;2022-09-03T09:26:20;26.20;99.90
23267;DHT22;11802;53.160;8.214;2022-09-03T09:28:51;26.00;99.90
23267;DHT22;11802;53.160;8.214;2022-09-03T09:31:18;26.00;99.90
23267;DHT22;11802;53.160;8.214;2022-09-03T09:33:44;25.70;99.90
23267;DHT22;11802;53.160;8.214;2022-09-03T09:36:13;25.80;99.90
23267;DHT22;11802;53.160;8.214;2022-09-03T09:38:40;26.50;99.90
23267;DHT22;11802;53.160;8.214;2022-09-03T09:41:19;26.50;99.90
23267;DHT22;11802;53.160;8.214;2022-09-03T09:43:46;25.70;99.90
23267;DHT22;11802;53.160;8.214;2022-09-03T09:46:20;25.90;99.90
23267;DHT22;11802;53.160;8.214;2022-09-03T09:48:53;25.90;99.90
23267;DHT22;11802;53.160;8.214;2022-09-03T09:51:27;26.20;99.70
23267;DHT22;11802;53.160;8.214;2022-09-03T09:54:15;25.60;99.20
23267;DHT22;11802;53.160;8.214;2022-09-03T09:56:43;25.90;99.10
23267;DHT22;11802;53.160;8.214;2022-09-03T09:59:11;26.40;99.10
23267;DHT22;11802;53.160;8.214;2022-09-03T10:01:41;26.60;98.50
23267;DHT22;11802;53.160;8.214;2022-09-03T10:04:23;26.40;97.20
23267;DHT22;11802;53.160;8.214;2022-09-03T10:07:03;26.30;97.20
23267;DHT22;11802;53.160;8.214;2022-09-03T10:09:31;26.10;97.60
23267;DHT22;11802;53.160;8.214;2022-09-03T10:12:16;26.30;97.40
23267;DHT22;11802;53.160;8.214;2022-09-03T10:14:54;26.60;97.50
23267;DHT22;11802;53.160;8.214;2022-09-03T10:17:34;26.20;96.30
23267;DHT22;11802;53.160;8.214;2022-09-03T10:23:02;26.20;96.40
23267;DHT22;11802;53.160;8.214;2022-09-03T10:28:21;26.10;96.20
23267;DHT22;11802;53.160;8.214;2022-09-03T10:33:38;26.00;96.50
23267;DHT22;11802;53.160;8.214;2022-09-03T10:36:14;26.50;96.00
23267;DHT22;11802;53.160;8.214;2022-09-03T10:38:42;26.20;95.10
23267;DHT22;11802;53.160;8.214;2022-09-03T10:41:28;26.00;95.30
23267;DHT22;11802;53.160;8.214;2022-09-03T10:46:58;25.50;95.90
23267;DHT22;11802;53.160;8.214;2022-09-03T10:49:41;25.70;96.10
23267;DHT22;11802;53.160;8.214;2022-09-03T10:52:20;25.80;95.50
23267;DHT22;11802;53.160;8.214;2022-09-03T11:00:29;25.80;95.20
23267;DHT22;11802;53.160;8.214;2022-09-03T11:06:11;26.10;94.50
23267;DHT22;11802;53.160;8.214;2022-09-03T11:08:59;26.20;94.40
23267;DHT22;11802;53.160;8.214;2022-09-03T11:11:33;25.60;94.20
23267;DHT22;11802;53.160;8.214;2022-09-03T11:14:13;25.40;94.30
23267;DHT22;11802;53.160;8.214;2022-09-03T11:16:50;25.70;94.50
23267;DHT22;11802;53.160;8.214;2022-09-03T11:19:21;25.80;94.30
23267;DHT22;11802;53.160;8.214;2022-09-03T11:21:48;25.90;94.00
23267;DHT22;11802;53.160;8.214;2022-09-03T11:24:21;25.90;93.60
23267;DHT22;11802;53.160;8.214;2022-09-03T11:27:30;25.80;93.60
23267;DHT22;11802;53.160;8.214;2022-09-03T11:30:05;25.70;94.20
23267;DHT22;11802;53.160;8.214;2022-09-03T11:32:46;25.80;94.00
23267;DHT22;11802;53.160;8.214;2022-09-03T11:35:22;26.20;94.10
23267;DHT22;11802;53.160;8.214;2022-09-03T11:38:03;26.20;93.70
23267;DHT22;11802;53.160;8.214;2022-09-03T11:40:35;25.80;94.40
23267;DHT22;11802;53.160;8.214;2022-09-03T11:46:05;25.70;93.90
23267;DHT22;11802;53.160;8.214;2022-09-03T11:48:41;25.60;94.20
23267;DHT22;11802;53.160;8.214;2022-09-03T11:54:22;25.50;94.60
23267;DHT22;11802;53.160;8.214;2022-09-03T11:56:49;25.30;94.60
23267;DHT22;11802;53.160;8.214;2022-09-03T11:59:19;25.20;94.90
23267;DHT22;11802;53.160;8.214;2022-09-03T12:02:18;24.80;95.00
23267;DHT22;11802;53.160;8.214;2022-09-03T12:13:21;25.30;95.00
23267;DHT22;11802;53.160;8.214;2022-09-03T12:16:18;25.40;95.00
23267;DHT22;11802;53.160;8.214;2022-09-03T12:18:47;25.30;94.40
23267;DHT22;11802;53.160;8.214;2022-09-03T12:21:17;25.30;94.50
23267;DHT22;11802;53.160;8.214;2022-09-03T12:23:50;25.40;94.80
23267;DHT22;11802;53.160;8.214;2022-09-03T12:26:19;25.70;94.60
23267;DHT22;11802;53.160;8.214;2022-09-03T12:28:48;25.80;94.30
23267;DHT22;11802;53.160;8.214;2022-09-03T12:31:20;26.00;94.00
23267;DHT22;11802;53.160;8.214;2022-09-03T12:34:11;25.30;93.90
23267;DHT22;11802;53.160;8.214;2022-09-03T12:36:39;25.40;94.20
23267;DHT22;11802;53.160;8.214;2022-09-03T12:39:13;25.20;94.80
23267;DHT22;11802;53.160;8.214;2022-09-03T12:47:22;25.50;95.00
23267;DHT22;11802;53.160;8.214;2022-09-03T12:49:50;25.40;94.50
23267;DHT22;11802;53.160;8.214;2022-09-03T12:52:36;25.50;94.80
23267;DHT22;11802;53.160;8.214;2022-09-03T12:57:44;25.60;94.50
23267;DHT22;11802;53.160;8.214;2022-09-03T13:00:16;25.40;94.40
23267;DHT22;11802;53.160;8.214;2022-09-03T13:05:18;25.40;94.80
23267;DHT22;11802;53.160;8.214;2022-09-03T13:07:49;25.40;94.60
23267;DHT22;11802;53.160;8.214;2022-09-03T13:10:29;25.30;94.50
23267;DHT22;11802;53.160;8.214;2022-09-03T13:13:01;25.40;94.90
23267;DHT22;11802;53.160;8.214;2022-09-03T13:15:27;25.40;94.70
23267;DHT22;11802;53.160;8.214;2022-09-03T13:18:10;25.30;95.10
23267;DHT22;11802;53.160;8.214;2022-09-03T13:20:52;25.50;94.90
23267;DHT22;11802;53.160;8.214;2022-09-03T13:28:41;26.20;93.80
23267;DHT22;11802;53.160;8.214;2022-09-03T13:39:34;25.20;94.30
23267;DHT22;11802;53.160;8.214;2022-09-03T13:42:15;24.90;94.60
23267;DHT22;11802;53.160;8.214;2022-09-03T13:44:58;25.00;95.00
23267;DHT22;11802;53.160;8.214;2022-09-03T13:47:48;25.30;94.70
23267;DHT22;11802;53.160;8.214;2022-09-03T13:50:43;25.30;94.80
23267;DHT22;11802;53.160;8.214;2022-09-03T13:53:30;25.50;94.40
23267;DHT22;11802;53.160;8.214;2022-09-03T13:56:06;25.50;94.40
23267;DHT22;11802;53.160;8.214;2022-09-03T13:58:44;25.50;94.20
23267;DHT22;11802;53.160;8.214;2022-09-03T14:03:56;25.60;94.30
23267;DHT22;11802;53.160;8.214;2022-09-03T14:17:39;24.90;94.60
23267;DHT22;11802;53.160;8.214;2022-09-03T14:23:32;24.70;95.10
23267;DHT22;11802;53.160;8.214;2022-09-03T14:26:02;24.70;94.70
23267;DHT22;11802;53.160;8.214;2022-09-03T14:28:34;24.60;94.50
23267;DHT22;11802;53.160;8.214;2022-09-03T14:31:02;24.80;94.20
23267;DHT22;11802;53.160;8.214;2022-09-03T14:37:12;24.90;94.20
23267;DHT22;11802;53.160;8.214;2022-09-03T14:39:58;24.80;94.10
23267;DHT22;11802;53.160;8.214;2022-09-03T14:42:40;24.60;94.40
23267;DHT22;11802;53.160;8.214;2022-09-03T14:48:33;24.60;94.50
23267;DHT22;11802;53.160;8.214;2022-09-03T15:02:30;24.50;94.30
23267;DHT22;11802;53.160;8.214;2022-09-03T15:08:21;24.50;94.40
23267;DHT22;11802;53.160;8.214;2022-09-03T15:10:58;24.50;94.40
23267;DHT22;11802;53.160;8.214;2022-09-03T15:30:00;24.40;94.60
23267;DHT22;11802;53.160;8.214;2022-09-03T15:33:10;24.40;94.20
23267;DHT22;11802;53.160;8.214;2022-09-03T15:38:31;24.30;94.20
23267;DHT22;11802;53.160;8.214;2022-09-03T15:41:06;24.10;94.50
23267;DHT22;11802;53.160;8.214;2022-09-03T15:43:33;24.10;94.40
23267;DHT22;11802;53.160;8.214;2022-09-03T15:46:02;24.00;94.50
23267;DHT22;11802;53.160;8.214;2022-09-03T15:48:56;24.00;94.60
23267;DHT22;11802;53.160;8.214;2022-09-03T15:51:29;23.90;94.70
23267;DHT22;11802;53.160;8.214;2022-09-03T15:54:16;23.90;95.00
23267;DHT22;11802;53.160;8.214;2022-09-03T15:56:53;23.90;95.20
23267;DHT22;11802;53.160;8.214;2022-09-03T15:59:39;23.90;94.90
23267;DHT22;11802;53.160;8.214;2022-09-03T16:02:12;23.80;95.20
23267;DHT22;11802;53.160;8.214;2022-09-03T16:05:00;23.80;95.50
23267;DHT22;11802;53.160;8.214;2022-09-03T16:10:12;23.80;95.40
23267;DHT22;11802;53.160;8.214;2022-09-03T16:13:00;23.60;95.70
23267;DHT22;11802;53.160;8.214;2022-09-03T16:15:37;23.60;95.80
23267;DHT22;11802;53.160;8.214;2022-09-03T16:18:27;23.60;96.00
23267;DHT22;11802;53.160;8.214;2022-09-03T16:21:31;23.60;95.40
23267;DHT22;11802;53.160;8.214;2022-09-03T16:24:04;23.40;95.70
23267;DHT22;11802;53.160;8.214;2022-09-03T16:26:36;23.30;96.00
23267;DHT22;11802;53.160;8.214;2022-09-03T16:29:12;23.30;96.10
23267;DHT22;11802;53.160;8.214;2022-09-03T16:32:06;23.30;96.20
23267;DHT22;11802;53.160;8.214;2022-09-03T16:37:48;23.20;96.60
23267;DHT22;11802;53.160;8.214;2022-09-03T16:46:34;23.00;96.90
23267;DHT22;11802;53.160;8.214;2022-09-03T16:55:17;22.70;97.60
23267;DHT22;11802;53.160;8.214;2022-09-03T16:58:05;22.70;97.60
23267;DHT22;11802;53.160;8.214;2022-09-03T17:07:05;22.60;97.50
23267;DHT22;11802;53.160;8.214;2022-09-03T17:10:00;22.60;97.50
23267;DHT22;11802;53.160;8.214;2022-09-03T17:12:33;22.60;97.40
23267;DHT22;11802;53.160;8.214;2022-09-03T17:15:28;22.60;97.60
23267;DHT22;11802;53.160;8.214;2022-09-03T17:21:21;22.60;97.90
23267;DHT22;11802;53.160;8.214;2022-09-03T17:32:30;22.30;98.80
23267;DHT22;11802;53.160;8.214;2022-09-03T17:35:08;22.20;98.90
23267;DHT22;11802;53.160;8.214;2022-09-03T17:38:24;22.20;99.00
23267;DHT22;11802;53.160;8.214;2022-09-03T17:40:56;22.10;99.20
23267;DHT22;11802;53.160;8.214;2022-09-03T17:43:49;22.00;99.70
23267;DHT22;11802;53.160;8.214;2022-09-03T17:49:54;21.80;99.90
23267;DHT22;11802;53.160;8.214;2022-09-03T17:55:31;21.60;99.90
23267;DHT22;11802;53.160;8.214;2022-09-03T18:00:53;21.40;99.90
23267;DHT22;11802;53.160;8.214;2022-09-03T18:03:29;21.30;99.90
23267;DHT22;11802;53.160;8.214;2022-09-03T18:06:00;21.20;99.90
23267;DHT22;11802;53.160;8.214;2022-09-03T18:09:03;21.10;99.90
23267;DHT22;11802;53.160;8.214;2022-09-03T18:14:31;20.90;99.90
23267;DHT22;11802;53.160;8.214;2022-09-03T18:19:37;20.80;99.90
23267;DHT22;11802;53.160;8.214;2022-09-03T18:22:25;20.70;99.90
23267;DHT22;11802;53.160;8.214;2022-09-03T18:25:13;20.70;99.90
23267;DHT22;11802;53.160;8.214;2022-09-03T18:28:00;20.70;99.90
23267;DHT22;11802;53.160;8.214;2022-09-03T18:30:45;20.60;99.90
23267;DHT22;11802;53.160;8.214;2022-09-03T18:33:29;20.60;99.90
23267;DHT22;11802;53.160;8.214;2022-09-03T18:36:13;20.50;99.90
23267;DHT22;11802;53.160;8.214;2022-09-03T18:39:07;20.50;99.90
23267;DHT22;11802;53.160;8.214;2022-09-03T18:42:10;20.50;99.90
23267;DHT22;11802;53.160;8.214;2022-09-03T18:45:14;20.40;99.90
23267;DHT22;11802;53.160;8.214;2022-09-03T18:48:31;20.30;99.90
23267;DHT22;11802;53.160;8.214;2022-09-03T18:51:35;20.20;99.90
23267;DHT22;11802;53.160;8.214;2022-09-03T19:04:07;20.10;99.90
23267;DHT22;11802;53.160;8.214;2022-09-03T19:07:08;20.10;99.90
23267;DHT22;11802;53.160;8.214;2022-09-03T19:10:21;20.10;99.90
23267;DHT22;11802;53.160;8.214;2022-09-03T19:13:26;20.10;99.90
23267;DHT22;11802;53.160;8.214;2022-09-03T19:22:12;19.90;99.90
23267;DHT22;11802;53.160;8.214;2022-09-03T19:25:05;19.90;99.90
23267;DHT22;11802;53.160;8.214;2022-09-03T19:28:12;19.80;99.90
23267;DHT22;11802;53.160;8.214;2022-09-03T19:31:19;19.80;99.90
23267;DHT22;11802;53.160;8.214;2022-09-03T19:40:15;19.60;99.90
23267;DHT22;11802;53.160;8.214;2022-09-03T19:52:48;19.40;99.90
23267;DHT22;11802;53.160;8.214;2022-09-03T19:55:36;19.40;99.90
23267;DHT22;11802;53.160;8.214;2022-09-03T19:58:23;19.30;99.90
23267;DHT22;11802;53.160;8.214;2022-09-03T20:01:11;19.20;99.90
23267;DHT22;11802;53.160;8.214;2022-09-03T20:03:58;19.20;99.90
23267;DHT22;11802;53.160;8.214;2022-09-03T20:06:44;19.10;99.90
23267;DHT22;11802;53.160;8.214;2022-09-03T20:09:33;19.10;99.90
23267;DHT22;11802;53.160;8.214;2022-09-03T20:12:20;18.90;99.90
23267;DHT22;11802;53.160;8.214;2022-09-03T20:14:46;18.90;99.90
23267;DHT22;11802;53.160;8.214;2022-09-03T20:25:12;18.80;99.90
23267;DHT22;11802;53.160;8.214;2022-09-03T20:28:06;18.70;99.90
23267;DHT22;11802;53.160;8.214;2022-09-03T20:30:47;18.60;99.90
23267;DHT22;11802;53.160;8.214;2022-09-03T20:36:00;18.50;99.90
23267;DHT22;11802;53.160;8.214;2022-09-03T20:39:00;18.50;99.90
23267;DHT22;11802;53.160;8.214;2022-09-03T20:47:10;18.30;99.90
23267;DHT22;11802;53.160;8.214;2022-09-03T20:52:46;18.20;99.90
23267;DHT22;11802;53.160;8.214;2022-09-03T20:55:27;18.20;99.90
23267;DHT22;11802;53.160;8.214;2022-09-03T21:00:40;18.10;99.90
23267;DHT22;11802;53.160;8.214;2022-09-03T21:03:18;18.00;99.90